createdAt,value
2022-09-09T00:00:49.508Z,70.68
2022-09-09T00:03:22.003Z,70.40
2022-09-09T00:06:00.159Z,70.57
2022-09-09T00:08:40.145Z,70.28
2022-09-09T00:11:14.576Z,70.94
2022-09-09T00:13:51.147Z,70.35
2022-09-09T00:16:25.133Z,70.12
2022-09-09T00:19:02.963Z,69.37
2022-09-09T00:21:37.031Z,69.71
2022-09-09T00:24:14.940Z,69.10
2022-09-09T00:26:47.403Z,68.59
2022-09-09T00:29:25.425Z,69.25
2022-09-09T00:32:00.421Z,69.83
2022-09-09T00:34:30.036Z,69.05
2022-09-09T00:36:58.453Z,69.48
2022-09-09T00:39:44.582Z,69.32
2022-09-09T00:42:19.624Z,68.53
2022-09-09T00:45:03.638Z,69.07
2022-09-09T00:47:43.422Z,69.79
2022-09-09T00:50:25.847Z,68.85
2022-09-09T00:53:01.130Z,68.43
2022-09-09T00:55:37.577Z,69.36
2022-09-09T00:58:09.397Z,69.71
2022-09-09T01:00:44.004Z,69.74
2022-09-09T01:03:27.743Z,69.45
2022-09-09T01:06:04.947Z,69.47
2022-09-09T01:08:48.279Z,70.06
2022-09-09T01:11:23.689Z,70.77
2022-09-09T01:14:01.043Z,70.67
2022-09-09T01:16:33.599Z,71.13
2022-09-09T01:19:03.455Z,70.36
2022-09-09T01:21:42.434Z,70.62
2022-09-09T01:24:24.990Z,70.32
2022-09-09T01:27:15.447Z,69.79
2022-09-09T01:29:43.875Z,69.49
2022-09-09T01:32:43.590Z,69.36
2022-09-09T01:35:17.822Z,69.60
2022-09-09T01:37:47.334Z,70.56
2022-09-09T01:40:15.853Z,70.16
2022-09-09T01:42:46.431Z,69.60
2022-09-09T01:45:14.310Z,69.30
2022-09-09T01:47:43.428Z,69.66
2022-09-09T01:50:30.000Z,70.59
2022-09-09T01:53:01.986Z,70.91
2022-09-09T01:55:36.575Z,70.31
2022-09-09T01:58:19.397Z,71.41
2022-09-09T02:01:02.160Z,72.01
2022-09-09T02:03:34.733Z,71.40
2022-09-09T02:06:25.554Z,72.03
2022-09-09T02:09:00.946Z,72.06
2022-09-09T02:11:31.081Z,71.68
2022-09-09T02:14:14.339Z,72.38
2022-09-09T02:16:51.211Z,71.98
2022-09-09T02:19:27.823Z,72.08
2022-09-09T02:22:12.126Z,72.55
2022-09-09T02:24:41.967Z,72.71
2022-09-09T02:27:23.094Z,72.82
2022-09-09T02:29:55.143Z,72.90
2022-09-09T02:32:37.655Z,73.11
2022-09-09T02:35:14.367Z,73.78
2022-09-09T02:37:47.086Z,73.94
2022-09-09T02:40:17.326Z,73.50
2022-09-09T02:42:50.938Z,73.60
2022-09-09T02:45:27.026Z,73.46
2022-09-09T02:48:04.999Z,73.42
2022-09-09T02:50:36.432Z,74.02
2022-09-09T02:53:15.946Z,73.03
2022-09-09T02:55:49.495Z,72.77
2022-09-09T02:58:21.110Z,74.27
2022-09-09T03:01:01.870Z,73.39
2022-09-09T03:03:31.310Z,73.60
2022-09-09T03:06:00.518Z,73.77
2022-09-09T03:08:30.227Z,74.06
2022-09-09T03:11:02.340Z,74.41
2022-09-09T03:13:32.829Z,73.90
2022-09-09T03:16:02.214Z,73.40
2022-09-09T03:18:35.443Z,74.35
2022-09-09T03:21:03.434Z,73.87
2022-09-09T03:23:32.641Z,74.13
2022-09-09T03:26:04.263Z,74.28
2022-09-09T03:28:41.364Z,74.02
2022-09-09T03:31:11.336Z,74.42
2022-09-09T03:33:42.250Z,74.21
2022-09-09T03:36:14.735Z,73.83
2022-09-09T03:38:43.028Z,74.61
2022-09-09T03:41:10.942Z,74.66
2022-09-09T03:43:40.545Z,74.76
2022-09-09T03:46:09.829Z,74.18
2022-09-09T03:48:38.143Z,74.22
2022-09-09T03:51:07.037Z,74.83
2022-09-09T03:53:36.775Z,74.70
2022-09-09T03:56:05.204Z,74.09
2022-09-09T03:58:33.471Z,74.40
2022-09-09T04:01:11.425Z,74.46
2022-09-09T04:03:40.392Z,74.79
2022-09-09T04:06:11.845Z,74.17
2022-09-09T04:08:39.643Z,74.57
2022-09-09T04:11:08.450Z,74.42
2022-09-09T04:13:40.057Z,74.46
2022-09-09T04:16:12.455Z,74.35
2022-09-09T04:18:40.529Z,74.16
2022-09-09T04:21:12.113Z,73.62
2022-09-09T04:23:41.022Z,73.55
2022-09-09T04:26:09.878Z,73.78
2022-09-09T04:28:38.922Z,74.15
2022-09-09T04:31:19.077Z,74.08
2022-09-09T04:33:49.982Z,74.36
2022-09-09T04:36:19.201Z,73.74
2022-09-09T04:38:47.427Z,73.18
2022-09-09T04:41:16.454Z,73.04
2022-09-09T04:43:46.391Z,72.96
2022-09-09T04:46:18.102Z,73.21
2022-09-09T04:48:46.328Z,73.57
2022-09-09T04:51:16.118Z,73.10
2022-09-09T04:53:46.201Z,73.10
2022-09-09T04:56:16.840Z,73.23
2022-09-09T04:58:57.485Z,73.30
2022-09-09T05:01:35.082Z,73.63
2022-09-09T05:04:05.322Z,74.12
2022-09-09T05:06:35.059Z,73.53
2022-09-09T05:09:04.193Z,72.79
2022-09-09T05:11:36.968Z,73.34
2022-09-09T05:14:27.844Z,73.71
2022-09-09T05:16:58.980Z,73.45
2022-09-09T05:19:26.875Z,72.86
2022-09-09T05:21:55.522Z,73.01
2022-09-09T05:24:30.379Z,73.29
2022-09-09T05:27:00.875Z,72.86
2022-09-09T05:29:30.263Z,72.71
2022-09-09T05:32:02.606Z,72.75
2022-09-09T05:34:30.538Z,72.31
2022-09-09T05:36:59.987Z,72.21
2022-09-09T05:39:28.738Z,72.43
2022-09-09T05:41:56.997Z,72.37
2022-09-09T05:44:28.717Z,72.19
2022-09-09T05:46:59.485Z,72.39
2022-09-09T05:49:29.443Z,72.78
2022-09-09T05:51:58.517Z,72.59
2022-09-09T05:54:28.278Z,72.01
2022-09-09T05:56:57.015Z,72.21
2022-09-09T05:59:25.657Z,72.38
2022-09-09T06:01:57.357Z,72.24
2022-09-09T06:04:33.110Z,72.68
2022-09-09T06:07:04.921Z,72.88
2022-09-09T06:09:33.816Z,72.32
2022-09-09T06:12:02.058Z,72.46
2022-09-09T06:14:32.222Z,71.95
2022-09-09T06:17:03.359Z,71.55
2022-09-09T06:19:33.727Z,71.72
2022-09-09T06:22:02.174Z,71.55
2022-09-09T06:24:34.255Z,72.10
2022-09-09T06:27:04.007Z,72.96
2022-09-09T06:29:36.441Z,72.05
2022-09-09T06:32:05.750Z,72.26
2022-09-09T06:34:37.542Z,72.30
2022-09-09T06:37:08.080Z,71.31
2022-09-09T06:39:43.994Z,72.00
2022-09-09T06:42:13.357Z,71.85
2022-09-09T06:45:06.053Z,71.38
2022-09-09T06:47:40.751Z,71.27
2022-09-09T06:50:13.625Z,71.48
2022-09-09T06:52:42.587Z,71.28
2022-09-09T06:55:14.543Z,71.00
2022-09-09T06:57:42.678Z,70.97
2022-09-09T07:00:16.689Z,70.73
2022-09-09T07:02:45.704Z,70.67
2022-09-09T07:05:18.228Z,71.03
2022-09-09T07:07:47.960Z,71.25
2022-09-09T07:10:20.024Z,71.11
2022-09-09T07:12:53.179Z,71.23
2022-09-09T07:15:22.460Z,70.68
2022-09-09T07:17:50.471Z,70.92
2022-09-09T07:20:22.072Z,70.96
2022-09-09T07:22:51.584Z,70.29
2022-09-09T07:25:21.867Z,70.95
2022-09-09T07:27:50.263Z,70.36
2022-09-09T07:30:23.082Z,70.05
2022-09-09T07:32:58.367Z,70.85
2022-09-09T07:35:29.253Z,69.79
2022-09-09T07:37:58.862Z,69.79
2022-09-09T07:40:27.279Z,69.93
2022-09-09T07:42:55.084Z,69.53
2022-09-09T07:45:23.133Z,69.50
2022-09-09T07:47:51.427Z,69.63
2022-09-09T07:50:19.962Z,69.10
2022-09-09T07:52:49.246Z,68.70
2022-09-09T07:55:17.133Z,68.37
2022-09-09T07:57:45.304Z,68.61
2022-09-09T08:00:15.646Z,67.60
2022-09-09T08:02:48.020Z,67.41
2022-09-09T08:05:17.782Z,66.93
2022-09-09T08:07:46.808Z,66.81
2022-09-09T08:10:17.046Z,66.63
2022-09-09T08:13:01.555Z,66.42
2022-09-09T08:15:35.336Z,66.26
2022-09-09T08:18:03.600Z,66.31
2022-09-09T08:20:32.112Z,65.62
2022-09-09T08:23:00.070Z,65.70
2022-09-09T08:25:29.867Z,66.18
2022-09-09T08:27:58.214Z,66.14
2022-09-09T08:30:26.114Z,65.79
2022-09-09T08:32:54.263Z,64.87
2022-09-09T08:35:23.625Z,64.76
2022-09-09T08:37:55.947Z,63.94
2022-09-09T08:40:35.159Z,64.45
2022-09-09T08:43:07.118Z,62.66
2022-09-09T08:45:43.945Z,62.34
2022-09-09T08:48:26.100Z,61.90
2022-09-09T08:50:55.954Z,62.70
2022-09-09T08:53:32.788Z,63.51
2022-09-09T08:56:10.431Z,64.24
2022-09-09T08:58:47.783Z,64.36
2022-09-09T09:01:32.760Z,64.76
2022-09-09T09:04:14.548Z,68.55
2022-09-09T09:06:53.703Z,69.40
2022-09-09T09:09:31.359Z,63.98
2022-09-09T09:12:03.372Z,63.82
2022-09-09T09:14:39.460Z,64.06
2022-09-09T09:17:15.585Z,61.30
2022-09-09T09:19:45.222Z,57.26
2022-09-09T09:22:22.172Z,59.63
2022-09-09T09:24:56.071Z,59.94
2022-09-09T09:27:34.844Z,60.45
2022-09-09T09:30:26.892Z,60.27
2022-09-09T09:33:01.826Z,61.71
2022-09-09T09:35:30.711Z,62.61
2022-09-09T09:40:58.968Z,65.32
2022-09-09T09:43:32.836Z,65.78
2022-09-09T09:46:17.679Z,66.91
2022-09-09T09:48:47.382Z,66.82
2022-09-09T09:51:20.334Z,65.07
2022-09-09T09:53:50.570Z,65.46
2022-09-09T09:56:18.575Z,64.98
2022-09-09T09:58:54.872Z,64.99
2022-09-09T10:01:30.923Z,63.20
2022-09-09T10:04:03.818Z,62.87
2022-09-09T10:06:34.565Z,61.61
2022-09-09T10:09:08.615Z,62.92
2022-09-09T10:11:47.478Z,61.87
2022-09-09T10:14:22.802Z,63.07
2022-09-09T10:17:10.463Z,63.59
2022-09-09T10:19:39.692Z,62.43
2022-09-09T10:22:27.115Z,60.90
2022-09-09T10:25:20.437Z,60.22
2022-09-09T10:28:06.078Z,60.24
2022-09-09T10:30:45.060Z,57.03
2022-09-09T10:33:22.298Z,57.03
2022-09-09T10:36:00.003Z,55.83
2022-09-09T10:38:32.425Z,54.82
2022-09-09T10:41:10.291Z,54.34
2022-09-09T10:43:57.422Z,54.04
2022-09-09T10:46:39.626Z,54.95
2022-09-09T10:49:23.091Z,53.69
2022-09-09T10:51:59.999Z,53.01
2022-09-09T10:54:45.294Z,53.34
2022-09-09T10:57:19.148Z,50.96
2022-09-09T10:59:52.237Z,51.32
2022-09-09T11:02:28.946Z,50.98
2022-09-09T11:05:02.599Z,49.33
2022-09-09T11:07:39.178Z,49.08
2022-09-09T11:10:19.733Z,49.14
2022-09-09T11:12:51.220Z,49.86
2022-09-09T11:15:22.899Z,50.51
2022-09-09T11:17:57.629Z,52.24
2022-09-09T11:20:26.315Z,55.04
2022-09-09T11:23:01.433Z,58.26
2022-09-09T11:25:37.454Z,59.13
2022-09-09T11:28:26.016Z,59.29
2022-09-09T11:31:12.482Z,57.93
2022-09-09T11:33:58.486Z,57.10
2022-09-09T11:36:40.721Z,58.84
2022-09-09T11:39:26.562Z,60.51
2022-09-09T11:41:54.868Z,61.71
2022-09-09T11:44:30.583Z,62.85
2022-09-09T11:46:58.834Z,62.77
2022-09-09T11:49:32.371Z,62.26
2022-09-09T11:52:00.130Z,61.58
2022-09-09T11:54:31.758Z,60.73
2022-09-09T11:57:00.217Z,61.41
2022-09-09T11:59:31.277Z,61.52
2022-09-09T12:02:00.971Z,60.92
2022-09-09T12:04:35.258Z,60.70
2022-09-09T12:07:06.909Z,58.62
2022-09-09T12:09:49.310Z,58.49
2022-09-09T12:12:29.782Z,58.69
2022-09-09T12:15:21.783Z,57.01
2022-09-09T12:17:52.475Z,56.07
2022-09-09T12:20:25.952Z,56.60
2022-09-09T12:23:21.600Z,55.85
2022-09-09T12:26:14.428Z,55.07
2022-09-09T12:28:51.825Z,55.02
2022-09-09T12:31:27.624Z,56.00
2022-09-09T12:33:55.645Z,56.22
2022-09-09T12:36:30.528Z,56.36
2022-09-09T12:39:01.777Z,56.40
2022-09-09T12:41:30.269Z,55.89
2022-09-09T12:44:08.911Z,55.84
2022-09-09T12:46:41.497Z,56.41
2022-09-09T12:49:28.553Z,56.42
2022-09-09T12:51:59.613Z,57.04
2022-09-09T12:54:27.435Z,56.66
2022-09-09T12:56:55.343Z,56.97
2022-09-09T12:59:26.983Z,56.35
2022-09-09T13:01:58.925Z,55.50
2022-09-09T13:04:27.234Z,55.68
2022-09-09T13:06:56.406Z,56.12
2022-09-09T13:09:27.672Z,56.32
2022-09-09T13:11:59.178Z,54.83
2022-09-09T13:14:33.533Z,54.50
2022-09-09T13:17:05.356Z,52.67
2022-09-09T13:19:38.056Z,51.11
2022-09-09T13:22:14.306Z,50.75
2022-09-09T13:24:44.038Z,50.70
2022-09-09T13:27:28.707Z,49.81
2022-09-09T13:29:57.799Z,49.57
2022-09-09T13:32:27.950Z,49.44
2022-09-09T13:34:57.472Z,50.75
2022-09-09T13:37:31.035Z,51.29
2022-09-09T13:40:00.581Z,48.49
2022-09-09T13:42:30.423Z,48.75
2022-09-09T13:45:00.916Z,48.68
2022-09-09T13:47:32.692Z,48.69
2022-09-09T13:50:00.594Z,49.13
2022-09-09T13:52:33.462Z,48.40
2022-09-09T13:55:02.671Z,48.44
2022-09-09T13:57:30.527Z,48.50
2022-09-09T14:00:06.527Z,48.92
2022-09-09T14:02:34.916Z,47.49
2022-09-09T14:05:02.942Z,46.63
2022-09-09T14:07:30.859Z,46.41
2022-09-09T14:09:58.797Z,46.38
2022-09-09T14:12:28.284Z,46.11
2022-09-09T14:14:56.075Z,46.06
2022-09-09T14:17:23.919Z,46.20
2022-09-09T14:19:51.748Z,46.68
2022-09-09T14:22:19.531Z,46.51
2022-09-09T14:24:47.615Z,45.85
2022-09-09T14:27:15.431Z,44.54
2022-09-09T14:29:45.559Z,44.99
2022-09-09T14:32:13.623Z,45.25
2022-09-09T14:34:41.580Z,44.79
2022-09-09T14:37:09.544Z,44.59
2022-09-09T14:39:37.341Z,44.68
2022-09-09T14:42:06.220Z,44.90
2022-09-09T14:44:34.592Z,44.45
2022-09-09T14:47:03.803Z,44.88
2022-09-09T14:49:32.040Z,45.10
2022-09-09T14:52:00.258Z,45.10
2022-09-09T14:54:29.232Z,45.20
2022-09-09T14:56:58.106Z,45.23
2022-09-09T14:59:26.067Z,45.08
2022-09-09T15:01:54.081Z,45.44
2022-09-09T15:04:23.279Z,45.76
2022-09-09T15:06:53.373Z,45.81
2022-09-09T15:09:21.187Z,45.87
2022-09-09T15:11:49.066Z,45.86
2022-09-09T15:14:17.239Z,45.83
2022-09-09T15:16:45.028Z,45.28
2022-09-09T15:19:13.023Z,45.22
2022-09-09T15:21:42.207Z,45.07
2022-09-09T15:24:10.117Z,45.96
2022-09-09T15:26:39.587Z,45.59
2022-09-09T15:29:08.419Z,45.96
2022-09-09T15:31:36.638Z,46.56
2022-09-09T15:34:06.381Z,46.62
2022-09-09T15:36:36.436Z,46.32
2022-09-09T15:39:08.407Z,46.98
2022-09-09T15:41:36.782Z,46.40
2022-09-09T15:44:04.848Z,45.09
2022-09-09T15:46:36.920Z,45.58
2022-09-09T15:49:07.271Z,45.65
2022-09-09T15:51:42.623Z,45.20
2022-09-09T15:54:14.163Z,45.50
2022-09-09T15:56:43.289Z,45.40
2022-09-09T15:59:12.394Z,46.15
2022-09-09T16:01:41.878Z,46.06
2022-09-09T16:04:10.158Z,46.27
2022-09-09T16:06:38.400Z,46.72
2022-09-09T16:09:08.091Z,47.26
2022-09-09T16:11:39.859Z,47.40
2022-09-09T16:14:08.458Z,47.96
2022-09-09T16:16:37.229Z,48.11
2022-09-09T16:19:08.038Z,47.96
2022-09-09T16:21:40.828Z,48.61
2022-09-09T16:24:10.422Z,50.31
2022-09-09T16:26:42.950Z,51.62
2022-09-09T16:29:11.025Z,52.50
2022-09-09T16:31:39.352Z,53.41
2022-09-09T16:34:07.410Z,53.23
2022-09-09T16:36:37.035Z,51.02
2022-09-09T16:39:07.467Z,51.17
2022-09-09T16:41:35.761Z,51.82
2022-09-09T16:44:06.925Z,51.63
2022-09-09T16:46:37.492Z,51.53
2022-09-09T16:49:07.997Z,51.46
2022-09-09T16:51:38.529Z,52.00
2022-09-09T16:54:08.914Z,52.43
2022-09-09T16:56:39.039Z,53.08
2022-09-09T16:59:11.352Z,53.48
2022-09-09T17:01:41.726Z,54.14
2022-09-09T17:04:11.859Z,54.47
2022-09-09T17:06:40.117Z,55.19
2022-09-09T17:09:09.662Z,56.00
2022-09-09T17:11:38.351Z,55.88
2022-09-09T17:14:09.646Z,56.68
2022-09-09T17:16:40.451Z,56.68
2022-09-09T17:19:10.154Z,56.50
2022-09-09T17:21:54.535Z,57.19
2022-09-09T17:24:27.555Z,57.10
2022-09-09T17:26:55.572Z,57.44
2022-09-09T17:29:25.941Z,57.47
2022-09-09T17:31:54.475Z,57.74
2022-09-09T17:34:22.925Z,58.47
2022-09-09T17:36:51.086Z,58.88
2022-09-09T17:39:19.138Z,58.99
2022-09-09T17:41:47.481Z,59.11
2022-09-09T17:44:15.896Z,59.30
2022-09-09T17:46:46.546Z,59.58
2022-09-09T17:49:16.187Z,59.81
2022-09-09T17:51:45.572Z,60.84
2022-09-09T17:54:15.327Z,60.69
2022-09-09T17:56:43.897Z,60.56
2022-09-09T17:59:14.260Z,61.06
2022-09-09T18:01:44.895Z,61.96
2022-09-09T18:04:15.880Z,62.03
2022-09-09T18:06:45.860Z,61.57
2022-09-09T18:09:16.844Z,61.09
2022-09-09T18:11:46.915Z,61.61
2022-09-09T18:14:18.163Z,62.31
2022-09-09T18:16:47.167Z,61.72
2022-09-09T18:19:19.415Z,61.66
2022-09-09T18:21:47.977Z,61.94
2022-09-09T18:24:17.742Z,61.73
2022-09-09T18:26:48.280Z,62.03
2022-09-09T18:29:20.024Z,61.53
2022-09-09T18:31:48.969Z,61.58
2022-09-09T18:34:20.018Z,62.15
2022-09-09T18:36:50.027Z,62.34
2022-09-09T18:39:19.550Z,63.94
2022-09-09T18:41:49.326Z,63.12
2022-09-09T18:44:20.738Z,62.62
2022-09-09T18:46:50.164Z,62.83
2022-09-09T18:49:21.146Z,62.39
2022-09-09T18:51:49.333Z,63.16
2022-09-09T18:54:19.574Z,62.63
2022-09-09T18:56:48.652Z,62.98
2022-09-09T18:59:19.635Z,62.82
2022-09-09T19:01:48.047Z,63.42
2022-09-09T19:04:17.356Z,63.37
2022-09-09T19:06:48.503Z,62.93
2022-09-09T19:09:19.437Z,63.44
2022-09-09T19:11:48.078Z,63.23
2022-09-09T19:14:18.008Z,63.15
2022-09-09T19:16:47.772Z,63.15
2022-09-09T19:19:18.605Z,63.05
2022-09-09T19:21:48.227Z,62.46
2022-09-09T19:24:18.790Z,62.81
2022-09-09T19:26:49.027Z,62.54
2022-09-09T19:29:19.397Z,62.94
2022-09-09T19:32:02.213Z,62.89
2022-09-09T19:34:36.440Z,63.13
2022-09-09T19:37:05.995Z,63.15
2022-09-09T19:39:34.611Z,63.14
2022-09-09T19:42:02.859Z,63.51
2022-09-09T19:44:30.895Z,63.79
2022-09-09T19:47:00.799Z,64.04
2022-09-09T19:49:29.331Z,64.98
2022-09-09T19:51:57.404Z,65.34
2022-09-09T19:54:26.990Z,64.88
2022-09-09T19:56:55.386Z,65.35
2022-09-09T19:59:23.367Z,64.91
2022-09-09T20:01:51.597Z,65.08
2022-09-09T20:04:20.160Z,65.07
2022-09-09T20:06:48.330Z,65.44
2022-09-09T20:09:18.155Z,65.20
2022-09-09T20:11:48.917Z,65.45
2022-09-09T20:14:17.850Z,66.04
2022-09-09T20:16:46.846Z,66.18
2022-09-09T20:19:17.305Z,65.36
2022-09-09T20:21:49.433Z,65.52
2022-09-09T20:24:20.096Z,65.26
2022-09-09T20:26:49.712Z,65.30
2022-09-09T20:29:19.747Z,65.32
2022-09-09T20:31:48.659Z,65.48
2022-09-09T20:34:18.898Z,65.71
2022-09-09T20:36:47.571Z,65.92
2022-09-09T20:39:18.199Z,65.76
2022-09-09T20:41:46.605Z,65.81
2022-09-09T20:44:17.925Z,66.14
2022-09-09T20:46:48.905Z,66.52
2022-09-09T20:49:18.324Z,66.44
2022-09-09T20:51:46.914Z,66.92
2022-09-09T20:54:16.955Z,66.51
2022-09-09T20:56:46.428Z,66.70
2022-09-09T20:59:17.432Z,66.71
2022-09-09T21:01:47.588Z,67.65
2022-09-09T21:04:17.426Z,67.50
2022-09-09T21:06:45.698Z,67.65
2022-09-09T21:09:14.326Z,67.23
2022-09-09T21:11:42.603Z,67.42
2022-09-09T21:14:10.959Z,67.55
2022-09-09T21:16:40.314Z,67.72
2022-09-09T21:19:08.499Z,67.92
2022-09-09T21:21:37.255Z,67.79
2022-09-09T21:24:05.865Z,68.00
2022-09-09T21:26:35.539Z,67.69
2022-09-09T21:29:03.646Z,68.15
2022-09-09T21:31:31.949Z,67.68
2022-09-09T21:34:01.411Z,68.06
2022-09-09T21:36:29.530Z,68.49
2022-09-09T21:38:59.222Z,68.08
2022-09-09T21:41:27.461Z,68.29
2022-09-09T21:43:56.411Z,68.15
2022-09-09T21:46:26.674Z,68.07
2022-09-09T21:48:56.696Z,68.41
2022-09-09T21:51:26.512Z,68.30
2022-09-09T21:53:56.424Z,68.53
2022-09-09T21:56:24.948Z,68.78
2022-09-09T21:58:56.843Z,68.54
2022-09-09T22:01:26.183Z,69.01
2022-09-09T22:03:54.412Z,69.03
2022-09-09T22:06:22.379Z,69.24
2022-09-09T22:08:51.820Z,69.21
2022-09-09T22:11:22.184Z,68.94
2022-09-09T22:13:50.700Z,69.00
2022-09-09T22:16:21.359Z,68.73
2022-09-09T22:18:52.513Z,69.16
2022-09-09T22:21:21.950Z,68.66
2022-09-09T22:23:55.517Z,68.83
2022-09-09T22:26:23.876Z,68.65
2022-09-09T22:28:53.853Z,68.83
2022-09-09T22:31:23.046Z,68.74
2022-09-09T22:33:52.191Z,68.60
2022-09-09T22:36:21.137Z,68.59
2022-09-09T22:38:49.601Z,68.61
2022-09-09T22:41:19.946Z,68.42
2022-09-09T22:43:48.545Z,68.40
2022-09-09T22:46:17.095Z,68.36
2022-09-09T22:48:45.265Z,68.54
2022-09-09T22:51:15.714Z,69.81
2022-09-09T22:53:45.459Z,71.46
2022-09-09T22:56:15.742Z,72.93
2022-09-09T22:58:46.145Z,74.37
2022-09-09T23:01:16.968Z,75.01
2022-09-09T23:03:47.111Z,76.58
2022-09-09T23:06:22.126Z,77.21
2022-09-09T23:08:52.046Z,78.07
2022-09-09T23:11:21.505Z,79.47
2022-09-09T23:13:53.057Z,82.01
2022-09-09T23:16:23.434Z,81.39
2022-09-09T23:18:52.215Z,82.71
2022-09-09T23:21:20.965Z,82.45
2022-09-09T23:23:49.767Z,82.82
2022-09-09T23:26:20.268Z,82.22
2022-09-09T23:28:51.841Z,84.05
2022-09-09T23:31:22.720Z,83.97
2022-09-09T23:33:50.780Z,83.82
2022-09-09T23:36:20.784Z,84.28
2022-09-09T23:38:49.158Z,83.41
2022-09-09T23:41:21.031Z,82.80
2022-09-09T23:43:52.232Z,82.65
2022-09-09T23:46:22.289Z,80.95
2022-09-09T23:48:51.902Z,81.76
2022-09-09T23:51:23.965Z,81.45
2022-09-09T23:53:53.760Z,82.09
2022-09-09T23:56:23.238Z,81.65
2022-09-09T23:58:53.244Z,80.33
